Time;durP1;ratioP1;P1;durP2;ratioP2;P2;SDS_P1;SDS_P2;PMS_P1;PMS_P2;Temp;Humidity;BMP_temperature;BMP_pressure;BME280_temperature;BME280_humidity;BME280_pressure;Samples;Min_cycle;Max_cycle;Signal;HPM_P1;HPM_P2
2022/07/09 14:22:06;;;;;;;2.83;2.63;;;37.70;26.20;;;29.31;26.05;96289.88;5036809;28;20337;-45
2022/07/09 14:24:32;;;;;;;3.35;2.70;;;37.40;24.70;;;29.66;26.07;96284.91;5026431;28;20024;-47
2022/07/09 14:26:59;;;;;;;2.97;2.70;;;37.80;23.70;;;29.73;26.87;96285.00;5017668;28;20032;-51
2022/07/09 14:29:28;;;;;;;3.50;2.70;;;38.50;23.10;;;29.90;25.18;96269.94;5012065;28;20044;-47
2022/07/09 14:31:54;;;;;;;2.72;2.53;;;39.00;22.30;;;30.52;24.76;96276.91;5014020;28;20080;-56
2022/07/09 14:34:26;;;;;;;3.58;2.45;;;39.20;21.90;;;29.09;25.92;96264.84;5022411;28;20033;-48
2022/07/09 14:36:52;;;;;;;2.70;2.50;;;39.50;21.30;;;29.23;25.46;96248.59;5016721;28;20028;-46
2022/07/09 14:39:21;;;;;;;3.80;2.63;;;39.80;20.90;;;28.09;26.46;96260.28;5021067;28;20507;-50
2022/07/09 14:41:48;;;;;;;4.97;2.65;;;39.90;20.30;;;28.73;26.07;96249.72;5018766;28;20025;-47
2022/07/09 14:44:15;;;;;;;3.75;2.58;;;39.90;20.00;;;29.43;26.05;96251.25;5021472;28;20109;-52
2022/07/09 14:46:41;;;;;;;3.25;3.05;;;40.20;20.10;;;30.20;26.05;96249.88;5022180;28;20031;-48
2022/07/09 14:49:17;;;;;;;3.40;3.17;;;40.50;20.20;;;31.04;24.89;96234.59;5026146;28;20045;-46
2022/07/09 14:51:46;;;;;;;3.78;3.47;;;41.10;19.80;;;31.53;24.70;96236.09;5014834;28;20033;-49
2022/07/09 14:54:23;;;;;;;3.58;3.35;;;41.80;19.80;;;31.86;23.48;96245.28;5021245;28;20036;-45
2022/07/09 14:56:49;;;;;;;4.07;3.78;;;42.60;19.30;;;31.68;22.99;96241.66;5026371;28;20484;-52
2022/07/09 14:59:21;;;;;;;3.47;3.17;;;43.30;18.70;;;30.79;24.58;96244.59;5018928;28;20021;-46
2022/07/09 15:01:48;;;;;;;3.58;3.28;;;43.90;18.20;;;31.29;23.84;96239.47;5013123;28;20421;-48
2022/07/09 15:04:17;;;;;;;4.63;3.78;;;44.30;17.90;;;30.95;24.05;96234.13;5017152;28;20041;-53
2022/07/09 15:06:43;;;;;;;3.45;3.13;;;44.70;17.70;;;31.03;24.74;96229.47;5014361;28;20033;-47
2022/07/09 15:09:12;;;;;;;3.45;3.25;;;45.00;17.50;;;31.91;23.42;96225.69;5006911;28;20025;-46
2022/07/09 15:11:44;;;;;;;3.83;3.63;;;45.30;17.80;;;32.37;22.71;96235.25;5012477;28;20029;-47
2022/07/09 15:14:09;;;;;;;3.83;3.63;;;45.80;17.00;;;32.74;23.00;96239.66;4998309;28;20082;-47
2022/07/09 15:16:35;;;;;;;4.50;4.15;;;46.50;16.90;;;32.55;22.47;96227.03;5018240;28;20087;-49
2022/07/09 15:19:01;;;;;;;4.13;3.92;;;46.60;16.60;;;32.39;22.32;96235.66;5020919;28;20024;-46
2022/07/09 15:21:33;;;;;;;4.15;3.95;;;46.80;16.30;;;33.25;21.49;96232.94;5023568;28;20060;-46
2022/07/09 15:23:59;;;;;;;4.15;3.78;;;47.20;16.10;;;33.59;21.59;96236.84;5020270;28;20104;-52
2022/07/09 15:26:25;;;;;;;3.72;3.53;;;47.70;16.00;;;33.18;22.03;96233.75;5021784;28;20025;-46
2022/07/09 15:28:59;;;;;;;3.75;3.47;;;48.00;15.70;;;32.72;21.82;96227.06;5019243;28;20018;-50
2022/07/09 15:31:28;;;;;;;3.95;3.47;;;47.40;15.50;;;33.15;22.18;96231.78;5004968;28;20033;-49
2022/07/09 15:33:57;;;;;;;3.17;2.97;;;47.00;15.80;;;33.14;21.64;96228.25;5009050;28;20491;-45
2022/07/09 15:36:26;;;;;;;2.72;2.53;;;46.10;15.90;;;33.16;21.87;96216.81;5007429;28;20051;-45
2022/07/09 15:38:52;;;;;;;3.25;2.88;;;45.50;16.10;;;33.13;23.51;96215.63;5000314;28;20026;-54
2022/07/09 15:41:17;;;;;;;3.15;2.85;;;45.30;16.40;;;33.20;22.29;96214.84;5012428;23;20065;-48
2022/07/09 15:43:46;;;;;;;4.53;2.70;;;45.50;16.40;;;32.83;22.91;96215.22;5014932;28;20075;-49
2022/07/09 15:46:15;;;;;;;3.13;2.92;;;45.50;16.30;;;32.64;22.95;96208.94;5014970;28;20106;-47
2022/07/09 15:48:50;;;;;;;3.85;3.55;;;45.20;16.30;;;32.30;23.16;96205.69;5032673;28;20029;-46
2022/07/09 15:51:28;;;;;;;4.07;3.88;;;45.40;16.20;;;33.15;22.89;96204.19;5032700;28;20031;-48
2022/07/09 15:53:57;;;;;;;5.43;5.03;;;46.60;16.00;;;33.44;22.29;96202.19;5014915;28;20033;-48
2022/07/09 15:56:23;;;;;;;6.18;5.75;;;47.90;15.60;;;33.85;21.69;96196.91;5029339;28;20024;-48
2022/07/09 15:58:50;;;;;;;5.47;5.07;;;48.70;15.20;;;34.19;21.84;96203.84;5015070;28;20027;-52
2022/07/09 16:01:19;;;;;;;6.03;5.53;;;49.20;15.10;;;34.01;21.97;96198.41;5014711;28;20036;-51
2022/07/09 16:03:48;;;;;;;7.03;6.63;;;49.80;14.70;;;34.28;22.95;96198.66;5008656;28;20485;-52
2022/07/09 16:06:13;;;;;;;7.55;7.15;;;50.60;14.60;;;33.82;22.59;96194.16;5006108;28;20028;-53
2022/07/09 16:08:45;;;;;;;7.10;6.50;;;51.20;14.30;;;34.14;21.25;96193.25;5032505;28;20032;-49
2022/07/09 16:14:09;;;;;;;6.43;6.00;;;51.30;13.80;;;32.62;22.98;96199.47;5032268;28;20087;-48
2022/07/09 16:16:42;;;;;;;5.40;5.00;;;51.20;13.70;;;32.98;22.57;96194.75;4997776;28;20032;-48
2022/07/09 16:19:08;;;;;;;3.90;3.60;;;51.50;13.60;;;33.22;22.23;96201.44;5032239;28;20028;-47
2022/07/09 16:21:40;;;;;;;3.50;2.65;;;49.90;13.90;;;32.91;22.71;96203.81;5014678;28;20033;-48
2022/07/09 16:24:08;;;;;;;4.20;3.78;;;47.50;14.70;;;33.17;22.63;96193.56;5032119;28;20032;-50
2022/07/09 16:26:34;;;;;;;4.38;3.95;;;47.60;14.80;;;32.75;23.32;96186.88;5013625;28;20429;-50
2022/07/09 16:29:01;;;;;;;4.82;4.38;;;48.10;14.70;;;32.92;22.83;96180.56;5032335;28;20125;-47
2022/07/09 16:31:27;;;;;;;3.75;3.10;;;48.50;14.50;;;33.14;22.65;96186.06;5014139;28;20086;-47
2022/07/09 16:33:56;;;;;;;3.03;2.83;;;47.80;14.50;;;32.74;23.65;96188.03;5014562;28;20459;-48
2022/07/09 16:36:28;;;;;;;3.95;2.72;;;46.80;15.10;;;32.48;23.65;96187.25;5014104;28;20025;-48
2022/07/09 16:38:54;;;;;;;2.50;2.30;;;46.60;15.20;;;32.26;24.20;96189.16;5014198;28;20028;-46
2022/07/09 16:41:20;;;;;;;2.78;2.40;;;45.70;15.50;;;32.21;24.04;96181.28;5031117;28;21380;-50
2022/07/09 16:43:45;;;;;;;3.58;2.50;;;45.00;15.80;;;31.92;25.06;96183.19;5030807;28;20116;-47
2022/07/09 16:46:11;;;;;;;2.78;2.58;;;44.10;16.30;;;31.87;25.44;96183.53;5030914;28;20029;-48
2022/07/09 16:48:47;;;;;;;3.28;2.95;;;43.50;16.70;;;31.69;25.70;96186.22;5031235;28;20025;-46
2022/07/09 16:51:15;;;;;;;4.68;2.28;;;43.30;17.00;;;31.30;26.37;96180.50;5019688;28;20032;-54
2022/07/09 16:53:47;;;;;;;3.03;2.58;;;42.90;17.30;;;30.81;26.51;96171.56;5031258;28;20021;-45
2022/07/09 16:56:16;;;;;;;3.35;2.58;;;42.20;17.50;;;30.89;26.30;96169.63;5027478;28;20390;-45
2022/07/09 16:58:45;;;;;;;4.00;2.78;;;42.30;17.60;;;31.22;27.24;96167.91;5013601;28;20391;-46
2022/07/09 17:01:11;;;;;;;5.53;3.47;;;43.40;17.50;;;31.85;25.46;96177.63;5013446;28;20171;-46
2022/07/09 17:03:38;;;;;;;2.95;2.67;;;44.90;17.00;;;32.00;28.62;96178.50;5031365;28;20444;-51
2022/07/09 17:06:07;;;;;;;2.72;2.50;;;44.60;17.40;;;31.43;26.44;96173.50;4997286;28;20052;-47
2022/07/09 17:08:52;;;;;;;2.88;2.55;;;43.40;17.60;;;30.86;26.13;96162.94;5013429;28;20122;-50
2022/07/09 17:11:29;;;;;;;2.53;1.95;;;41.70;18.10;;;30.58;27.84;96171.72;5013367;28;20542;-50
2022/07/09 17:13:58;;;;;;;5.72;2.28;;;40.30;19.60;;;30.01;27.36;96182.16;4997594;28;20071;-48
2022/07/09 17:16:27;;;;;;;1.73;1.60;;;39.00;19.60;;;29.58;29.68;96169.88;5030620;28;20071;-47
2022/07/09 17:18:56;;;;;;;2.50;1.52;;;37.70;20.50;;;29.01;29.73;96167.94;4997408;28;20020;-46
2022/07/09 17:21:28;;;;;;;3.75;1.50;;;36.70;21.20;;;28.47;30.34;96174.53;5030739;28;20032;-49
2022/07/09 17:23:54;;;;;;;2.78;1.77;;;35.70;21.70;;;28.20;31.91;96170.13;5030956;28;20029;-49
2022/07/09 17:26:24;;;;;;;1.85;1.75;;;34.90;22.40;;;27.95;34.43;96175.94;5030924;28;20087;-48
2022/07/09 17:28:56;;;;;;;1.40;1.30;;;34.10;23.50;;;27.65;34.89;96170.25;5013387;28;20044;-48
2022/07/09 17:31:24;;;;;;;3.50;2.10;;;33.50;24.40;;;27.30;35.89;96176.59;5030614;28;20028;-46
2022/07/09 17:33:53;;;;;;;2.33;1.60;;;33.00;25.10;;;26.90;34.73;96166.69;5030781;28;20029;-47
2022/07/09 17:36:19;;;;;;;2.25;1.40;;;32.60;25.40;;;26.40;33.90;96168.19;5012344;28;20031;-48
2022/07/09 17:38:48;;;;;;;2.03;1.40;;;32.20;25.40;;;26.22;34.95;96172.41;5030986;28;20020;-48
2022/07/09 17:41:13;;;;;;;2.85;1.80;;;31.80;25.70;;;26.16;35.35;96157.44;5011793;28;20037;-45
2022/07/09 17:43:39;;;;;;;3.35;1.52;;;31.60;26.00;;;26.14;35.70;96163.28;5030574;28;20086;-47
2022/07/09 17:46:13;;;;;;;2.63;1.50;;;31.30;26.30;;;26.10;34.93;96158.84;5030135;28;20078;-46
2022/07/09 17:48:41;;;;;;;3.92;1.50;;;31.10;26.50;;;25.77;35.78;96162.66;5030035;28;20024;-48
2022/07/09 17:51:21;;;;;;;1.95;1.75;;;30.90;26.70;;;25.68;36.32;96164.72;5000998;28;20042;-46
2022/07/09 17:53:50;;;;;;;2.60;1.38;;;30.70;27.00;;;25.61;39.38;96166.13;4997166;28;20048;-46
2022/07/09 17:56:24;;;;;;;1.60;1.40;;;30.60;27.70;;;25.48;40.50;96161.84;5026571;28;20032;-48
2022/07/09 17:58:51;;;;;;;4.10;1.52;;;30.40;28.50;;;25.28;38.88;96158.16;5012913;28;20025;-47
2022/07/09 18:01:26;;;;;;;2.65;1.65;;;30.20;28.40;;;25.20;39.45;96155.59;5030116;28;20116;-46
2022/07/09 18:03:55;;;;;;;1.23;1.10;;;30.00;28.70;;;25.01;40.89;96153.41;5030439;28;20159;-51
2022/07/09 18:06:29;;;;;;;2.17;1.63;;;29.90;29.10;;;24.80;41.48;96164.47;5011857;28;20135;-51
2022/07/09 18:08:55;;;;;;;2.30;1.40;;;29.70;29.50;;;24.70;41.04;96155.63;5012642;28;20107;-52
2022/07/09 18:11:28;;;;;;;1.80;1.40;;;29.50;29.70;;;24.52;41.84;96151.53;5012390;28;20032;-51
2022/07/09 18:13:57;;;;;;;2.20;1.52;;;29.30;30.00;;;24.32;41.46;96152.41;5030290;28;20112;-49
2022/07/09 18:16:26;;;;;;;1.40;1.27;;;29.10;30.30;;;24.17;43.63;96146.50;5030392;28;20082;-49
2022/07/09 18:18:52;;;;;;;2.03;1.25;;;28.90;30.80;;;24.05;38.59;96145.69;5030312;28;20024;-45
2022/07/09 18:21:18;;;;;;;2.53;1.42;;;28.70;30.30;;;23.93;43.93;96154.63;5012165;28;20040;-48
2022/07/09 18:23:45;;;;;;;1.70;1.55;;;28.50;31.00;;;23.85;43.95;96152.78;5030062;28;20028;-46
2022/07/09 18:26:12;;;;;;;1.52;1.38;;;28.30;31.50;;;23.72;43.54;96150.03;5029454;28;20491;-51
2022/07/09 18:28:47;;;;;;;3.85;1.20;;;28.10;31.90;;;23.44;44.62;96155.22;5012485;28;20032;-49
2022/07/09 18:31:25;;;;;;;2.63;1.10;;;27.90;32.40;;;23.19;46.37;96150.78;5029922;28;20020;-50
2022/07/09 18:33:57;;;;;;;3.22;1.50;;;27.70;33.10;;;23.06;46.24;96155.34;5012133;28;20027;-46
2022/07/09 18:36:29;;;;;;;3.63;1.58;;;27.40;33.50;;;22.89;46.51;96155.47;5011762;28;20017;-47
2022/07/09 18:38:57;;;;;;;2.42;1.40;;;27.20;33.90;;;22.63;49.20;96149.06;5012195;28;20025;-47
2022/07/09 18:41:29;;;;;;;1.77;1.20;;;26.90;34.60;;;22.31;52.66;96150.50;5011301;28;20078;-46
2022/07/09 18:43:55;;;;;;;1.70;1.20;;;26.70;35.70;;;22.13;53.07;96151.66;5012158;28;20356;-48
2022/07/09 18:46:30;;;;;;;3.13;1.48;;;26.50;36.10;;;21.94;52.44;96147.41;5029511;28;20387;-45
2022/07/09 18:48:55;;;;;;;2.92;1.40;;;26.20;37.10;;;21.77;52.56;96141.22;5027116;28;20033;-49
2022/07/09 18:51:21;;;;;;;1.70;1.30;;;26.00;37.20;;;21.63;52.61;96136.78;5001579;28;20032;-45
2022/07/09 18:53:54;;;;;;;1.55;1.42;;;25.80;37.60;;;21.56;52.06;96139.19;5011881;28;20037;-46
2022/07/09 18:56:26;;;;;;;3.08;1.77;;;25.60;37.90;;;21.45;52.18;96141.44;5026541;28;20028;-47
2022/07/09 18:58:52;;;;;;;4.20;1.80;;;25.50;38.30;;;21.36;51.98;96146.06;5029878;28;20024;-49
2022/07/09 19:01:21;;;;;;;1.75;1.20;;;25.30;38.30;;;21.26;52.18;96140.94;4996175;28;20047;-47
2022/07/09 19:03:47;;;;;;;3.30;1.58;;;25.20;38.80;;;21.20;52.45;96139.50;4995783;28;20017;-50
2022/07/09 19:06:30;;;;;;;1.98;1.40;;;25.10;38.90;;;21.10;52.53;96140.63;5029373;28;20453;-46
2022/07/09 19:08:56;;;;;;;2.25;1.38;;;25.00;39.50;;;21.03;53.08;96141.09;5016538;28;20368;-49
2022/07/09 19:11:28;;;;;;;2.58;1.30;;;24.80;39.40;;;20.96;53.25;96134.56;5033391;28;20028;-47
2022/07/09 19:13:57;;;;;;;1.97;1.10;;;24.70;40.10;;;20.87;53.73;96139.16;5033624;28;20053;-46
2022/07/09 19:16:23;;;;;;;1.60;1.27;;;24.60;40.00;;;20.82;55.10;96142.84;5033080;28;20028;-47
2022/07/09 19:18:55;;;;;;;1.73;1.23;;;24.50;40.60;;;20.69;56.92;96143.78;5015850;28;20040;-46
2022/07/09 19:21:23;;;;;;;2.22;1.60;;;24.40;41.50;;;20.55;57.51;96143.88;4999269;28;20037;-49
2022/07/09 19:23:57;;;;;;;2.72;1.52;;;24.30;41.60;;;20.42;58.37;96150.97;5015611;28;20032;-46
2022/07/09 19:26:27;;;;;;;2.30;1.55;;;24.10;42.50;;;20.31;58.51;96145.06;5015638;28;20024;-47
2022/07/09 19:29:01;;;;;;;2.10;1.58;;;24.00;42.80;;;20.18;58.96;96145.97;5015648;28;20024;-49
2022/07/09 19:34:20;;;;;;;4.28;1.45;;;23.80;43.60;;;19.94;58.54;96149.03;5017965;28;20032;-46
2022/07/09 19:36:52;;;;;;;2.28;1.52;;;23.60;43.40;;;19.84;58.88;96152.81;5015882;28;20459;-48
2022/07/09 19:39:26;;;;;;;3.88;1.40;;;23.50;43.90;;;19.77;59.53;96151.63;5015348;28;20028;-46
2022/07/09 19:41:51;;;;;;;1.50;1.40;;;23.40;44.30;;;19.65;60.41;96149.53;5032550;28;20518;-46
2022/07/09 19:44:18;;;;;;;2.55;1.42;;;23.30;44.40;;;19.56;60.34;96154.84;4995333;28;20033;-46
2022/07/09 19:46:44;;;;;;;1.85;1.42;;;23.20;44.80;;;19.49;59.94;96151.78;5031173;28;20060;-49
2022/07/09 19:49:10;;;;;;;2.40;1.45;;;23.10;44.90;;;19.42;60.08;96148.69;5022955;28;20017;-46
2022/07/09 19:51:39;;;;;;;2.10;1.48;;;23.00;45.10;;;19.36;61.14;96160.72;5015127;28;20052;-45
2022/07/09 19:54:17;;;;;;;6.65;1.75;;;23.00;45.40;;;19.29;61.78;96158.44;5031445;28;20029;-46
2022/07/09 19:56:47;;;;;;;2.63;1.20;;;22.90;46.00;;;19.22;61.31;96157.28;5007558;28;20033;-46
2022/07/09 19:59:15;;;;;;;4.13;1.40;;;22.80;46.00;;;19.13;60.84;96149.91;5002280;28;20022;-48
2022/07/09 20:01:41;;;;;;;1.98;1.48;;;22.80;46.00;;;19.05;61.14;96157.91;5017635;28;20120;-47
2022/07/09 20:04:07;;;;;;;3.80;1.67;;;22.70;46.10;;;18.99;61.54;96164.53;5026046;28;20135;-47
2022/07/09 20:06:33;;;;;;;2.53;1.17;;;22.60;46.30;;;18.89;61.81;96160.16;5014080;28;20344;-46
2022/07/09 20:09:01;;;;;;;1.98;1.50;;;22.50;46.60;;;18.83;61.88;96164.88;5012081;28;20025;-48
2022/07/09 20:11:27;;;;;;;2.83;1.55;;;22.40;46.70;;;18.75;61.38;96164.81;5029181;28;20029;-52
2022/07/09 20:13:53;;;;;;;2.00;1.70;;;22.30;46.60;;;18.69;61.68;96166.78;5015013;28;20017;-47
2022/07/09 20:16:25;;;;;;;2.90;1.42;;;22.30;46.80;;;18.63;61.07;96165.28;5032950;28;20028;-50
2022/07/09 20:18:55;;;;;;;2.50;1.40;;;22.20;47.10;;;18.56;61.76;96165.69;5029519;28;20017;-50
2022/07/09 20:21:24;;;;;;;1.73;1.52;;;22.10;47.00;;;18.49;61.65;96160.69;5014225;28;20051;-46
2022/07/09 20:23:50;;;;;;;3.15;1.88;;;22.10;47.20;;;18.42;62.54;96160.28;5014326;28;20039;-49
2022/07/09 20:26:23;;;;;;;2.42;1.60;;;22.00;47.30;;;18.36;62.57;96150.69;5014159;28;20033;-47
2022/07/09 20:28:49;;;;;;;2.28;1.30;;;21.90;47.70;;;18.28;62.98;96162.19;5014595;28;20562;-45
2022/07/09 20:31:27;;;;;;;3.17;1.50;;;21.90;47.60;;;18.18;63.26;96163.19;5031738;28;20041;-47
2022/07/09 20:33:52;;;;;;;4.60;1.50;;;21.80;48.00;;;18.12;63.55;96163.59;4997997;28;20023;-48
2022/07/09 20:36:30;;;;;;;1.95;1.50;;;21.70;47.90;;;18.08;63.90;96159.88;5022674;28;20032;-48
2022/07/09 20:38:56;;;;;;;2.58;1.67;;;21.70;48.40;;;18.02;63.46;96160.00;5014268;28;20024;-47
2022/07/09 20:41:27;;;;;;;1.85;1.60;;;21.60;48.20;;;17.99;63.80;96173.28;5013008;28;20036;-46
2022/07/09 20:43:59;;;;;;;3.15;1.63;;;21.60;48.50;;;17.95;63.44;96162.25;5031985;28;20024;-47
2022/07/09 20:46:26;;;;;;;2.50;1.65;;;21.60;48.60;;;17.93;63.50;96161.78;5014221;28;20044;-49
2022/07/09 20:48:52;;;;;;;2.47;1.80;;;21.50;48.60;;;17.92;63.40;96167.44;5013730;28;20021;-49
2022/07/09 20:51:21;;;;;;;3.50;1.80;;;21.50;48.70;;;17.89;62.84;96160.75;5013094;28;20446;-49
2022/07/09 20:53:56;;;;;;;2.78;2.10;;;21.50;48.60;;;17.88;64.15;96161.84;5013496;28;20074;-47
2022/07/09 20:56:28;;;;;;;4.68;1.90;;;21.50;48.90;;;17.86;64.72;96166.72;5013505;28;20033;-47
2022/07/09 20:59:07;;;;;;;3.38;1.75;;;21.40;48.90;;;17.85;64.63;96165.13;5007666;28;20026;-50
2022/07/09 21:01:39;;;;;;;2.33;2.03;;;21.40;49.30;;;17.83;64.58;96166.53;5010787;28;20051;-48
2022/07/09 21:04:08;;;;;;;4.15;2.00;;;21.40;49.20;;;17.75;66.24;96163.41;5011635;28;20029;-44
2022/07/09 21:06:36;;;;;;;2.03;1.60;;;21.40;49.40;;;17.72;66.00;96165.88;5031394;28;20115;-48
2022/07/09 21:09:08;;;;;;;4.13;2.38;;;21.30;50.20;;;17.70;65.53;96170.75;5008416;28;20033;-46
2022/07/09 21:11:37;;;;;;;2.30;1.90;;;21.30;49.70;;;17.67;65.60;96164.06;5023862;28;20115;-45
2022/07/09 21:14:09;;;;;;;2.25;1.90;;;21.30;49.80;;;17.65;65.48;96170.88;4996942;28;20031;-48
2022/07/09 21:19:28;;;;;;;2.03;1.55;;;21.20;50.00;;;17.55;66.93;96166.44;5032381;28;20027;-48
2022/07/09 21:21:57;;;;;;;2.50;1.60;;;21.20;50.10;;;17.51;66.85;96163.50;5013302;28;20085;-47
2022/07/09 21:24:35;;;;;;;3.08;1.67;;;21.10;50.30;;;17.46;67.49;96168.22;5031417;28;20507;-46
2022/07/09 21:27:07;;;;;;;3.78;1.77;;;21.10;50.70;;;17.39;67.60;96162.38;5031193;28;20112;-46
2022/07/09 21:29:36;;;;;;;2.72;1.60;;;21.10;50.80;;;17.35;67.49;96159.47;5012889;28;20102;-44
2022/07/09 21:32:09;;;;;;;4.22;1.80;;;21.00;51.40;;;17.29;67.56;96158.75;5012969;28;20032;-47
2022/07/09 21:34:40;;;;;;;4.40;1.60;;;20.90;51.00;;;17.23;67.57;96159.91;5030930;28;20020;-47
2022/07/09 21:37:11;;;;;;;4.07;1.98;;;20.90;51.10;;;17.15;68.19;96152.53;5002920;28;20032;-47
2022/07/09 21:39:40;;;;;;;3.42;1.73;;;20.80;51.20;;;17.08;68.14;96150.19;5031058;28;20025;-45
2022/07/09 21:42:06;;;;;;;3.42;2.08;;;20.80;51.20;;;17.01;68.35;96141.69;5012274;22;20064;-48
2022/07/09 21:44:37;;;;;;;3.92;1.73;;;20.70;51.40;;;16.96;69.11;96144.47;4986304;28;20058;-45
2022/07/09 21:47:03;;;;;;;3.35;1.95;;;20.60;51.80;;;16.90;69.51;96144.81;4986520;28;20028;-53
2022/07/09 21:49:29;;;;;;;4.57;2.17;;;20.60;51.80;;;16.82;69.33;96144.38;4990030;28;20480;-44
2022/07/09 21:51:58;;;;;;;2.42;1.60;;;20.50;51.90;;;16.75;70.50;96143.09;4989693;28;20036;-44
2022/07/09 21:54:30;;;;;;;3.13;1.80;;;20.40;52.30;;;16.61;70.54;96138.44;4987110;28;20109;-47
2022/07/09 21:57:05;;;;;;;3.65;2.10;;;20.30;52.40;;;16.49;71.58;96142.66;4986667;28;20152;-47
2022/07/09 21:59:32;;;;;;;3.15;1.83;;;20.30;53.20;;;16.48;71.23;96138.34;4983356;28;20392;-45
2022/07/09 22:02:00;;;;;;;4.75;2.05;;;20.20;52.60;;;16.40;71.16;96135.22;4990329;28;20029;-49
